METAR Data
IDs: Format: Raw Decoded Include TAF

Data at: 2144 UTC 18 Apr 2021

METAR for:KCRP (Corpus Christi Intl, TX, US)
Text:KCRP 182051Z 02010KT 10SM OVC090 17/07 A3008 RMK AO2 SLP185 T01720072 58019 $
Temperature: 17.2°C ( 63°F)
Dewpoint: 7.2°C ( 45°F) [RH = 52%]
Pressure (altimeter):30.08 inches Hg (1018.7 mb) [Sea level pressure: 1018.5 mb]
Winds:from the NNE (20 degrees) at 12 MPH (10 knots; 5.1 m/s)
Visibility:10 or more sm (16+ km)
Ceiling:9000 feet AGL
Clouds: overcast cloud deck at 9000 feet AGL
QC Flag:SOME DATA ABOVE MAY BE INACCURATE!!!"$" is an indication the sensor requires maintenance.